Pagrindinis puslapis
METAR-TAF:

METAR-TAF

Oro uostai :

Manicoré, Amazonė, Brazilija

platuma: 05-49S, ilguma: 061-18W, Aukštis: 50 m

Dabartinis oras

Ataskaita buvo paskelbta 4 valandos ir 6 minutes, ne 18:00 UTC
Vėjas 4 kt iš Pietų/Pietryčių
Temperatūra 35°C
Drėgmė 56%
Slėgis 1009 hPa
Matomumas 10 km arba daugiau
Mažai debesys ne aukštis 2100 ft

METAR: SBMY 161800Z 15004KT 9999 FEW021 35/25 Q1009

Laikas: 18:06 (22:06 UTC)


TAF: trūkstamas

Orai ataskaitas ir orų prognozės (METAR, TAF).

turimą stotys yra geltonos ir raudonos taškus žemėlapyje.

Perkelti pele per norėdami pamatyti stoties vardą.

Tada spustelėkite, norėdami matyti oro stebėjimo ir prognozės.

Norėdami pakeisti žemėlapį: spustelėkite ant žalios mygtukų su juodo kryžiaus žemyn,; žalią mygtuką su brūkšneliu, jei norite nutolinti; arba žalių rodyklių gretimoms žemėlapius.


METAR-TAF: